createdAt,value
2024-02-23T00:00:06.763Z,100.00
2024-02-23T00:02:35.084Z,100.00
2024-02-23T00:05:07.532Z,100.00
2024-02-23T00:07:35.973Z,100.00
2024-02-23T00:10:04.646Z,100.00
2024-02-23T00:12:33.039Z,100.00
2024-02-23T00:15:01.365Z,100.00
2024-02-23T00:17:29.885Z,100.00
2024-02-23T00:19:58.241Z,100.00
2024-02-23T00:22:28.068Z,100.00
2024-02-23T00:24:56.691Z,100.00
2024-02-23T00:27:25.102Z,100.00
2024-02-23T00:29:53.394Z,100.00
2024-02-23T00:32:21.798Z,100.00
2024-02-23T00:34:50.244Z,100.00
2024-02-23T00:37:18.890Z,100.00
2024-02-23T00:39:48.612Z,100.00
2024-02-23T00:42:17.014Z,100.00
2024-02-23T00:44:45.314Z,100.00
2024-02-23T00:47:13.687Z,100.00
2024-02-23T00:49:42.027Z,100.00
2024-02-23T00:52:11.712Z,100.00
2024-02-23T00:54:40.092Z,100.00
2024-02-23T00:57:09.875Z,100.00
2024-02-23T00:59:38.266Z,100.00
2024-02-23T01:02:07.011Z,100.00
2024-02-23T01:04:35.616Z,100.00
2024-02-23T01:07:03.947Z,100.00
2024-02-23T01:09:32.311Z,100.00
2024-02-23T01:12:00.833Z,100.00
2024-02-23T01:14:30.702Z,100.00
2024-02-23T01:16:59.367Z,100.00
2024-02-23T01:19:27.811Z,100.00
2024-02-23T01:22:01.186Z,100.00
2024-02-23T01:24:30.557Z,100.00
2024-02-23T01:26:59.188Z,100.00
2024-02-23T01:29:28.088Z,100.00
2024-02-23T01:31:58.301Z,100.00
2024-02-23T01:34:26.751Z,100.00
2024-02-23T01:36:55.074Z,100.00
2024-02-23T01:39:23.400Z,100.00
2024-02-23T01:41:51.725Z,100.00
2024-02-23T01:44:22.370Z,100.00
2024-02-23T01:46:51.165Z,100.00
2024-02-23T01:49:22.635Z,100.00
2024-02-23T01:51:51.125Z,100.00
2024-02-23T01:54:19.408Z,100.00
2024-02-23T01:56:47.990Z,100.00
2024-02-23T01:59:16.807Z,100.00
2024-02-23T02:01:45.371Z,100.00
2024-02-23T02:04:13.787Z,100.00
2024-02-23T02:06:43.594Z,100.00
2024-02-23T02:09:12.174Z,100.00
2024-02-23T02:11:48.000Z,100.00
2024-02-23T02:14:16.418Z,100.00
2024-02-23T02:16:45.158Z,100.00
2024-02-23T02:19:13.510Z,100.00
2024-02-23T02:21:43.350Z,100.00
2024-02-23T02:24:13.773Z,100.00
2024-02-23T02:26:44.371Z,100.00
2024-02-23T02:29:12.737Z,100.00
2024-02-23T02:31:41.411Z,100.00
2024-02-23T02:34:09.821Z,100.00
2024-02-23T02:36:38.230Z,100.00
2024-02-23T02:39:11.379Z,100.00
2024-02-23T02:41:40.054Z,100.00
2024-02-23T02:44:08.765Z,100.00
2024-02-23T02:46:37.172Z,100.00
2024-02-23T02:49:05.925Z,100.00
2024-02-23T02:51:34.316Z,100.00
2024-02-23T02:54:02.925Z,100.00
2024-02-23T02:56:32.746Z,100.00
2024-02-23T02:59:01.184Z,100.00
2024-02-23T03:01:29.601Z,100.00
2024-02-23T03:03:57.971Z,100.00
2024-02-23T03:06:26.404Z,100.00
2024-02-23T03:08:55.107Z,100.00
2024-02-23T03:11:23.522Z,100.00
2024-02-23T03:13:53.593Z,100.00
2024-02-23T03:16:24.512Z,100.00
2024-02-23T03:18:52.898Z,100.00
2024-02-23T03:21:21.195Z,100.00
2024-02-23T03:23:49.669Z,100.00
2024-02-23T03:26:18.564Z,100.00
2024-02-23T03:28:46.980Z,100.00
2024-02-23T03:31:16.749Z,100.00
2024-02-23T03:33:45.278Z,100.00
2024-02-23T03:36:13.744Z,100.00
2024-02-23T03:38:42.190Z,100.00
2024-02-23T03:41:10.524Z,100.00
2024-02-23T03:43:39.609Z,100.00
2024-02-23T03:46:08.627Z,100.00
2024-02-23T03:48:38.610Z,100.00
2024-02-23T03:51:07.463Z,100.00
2024-02-23T03:53:35.766Z,100.00
2024-02-23T03:56:04.221Z,100.00
2024-02-23T03:58:32.582Z,100.00
2024-02-23T04:01:01.348Z,100.00
2024-02-23T04:03:29.648Z,100.00
2024-02-23T04:05:58.409Z,100.00
2024-02-23T04:08:26.769Z,100.00
2024-02-23T04:10:55.185Z,100.00
2024-02-23T04:13:23.523Z,100.00
2024-02-23T04:15:52.098Z,100.00
2024-02-23T04:18:20.462Z,100.00
2024-02-23T04:20:49.072Z,100.00
2024-02-23T04:23:18.937Z,100.00
2024-02-23T04:25:47.300Z,100.00
2024-02-23T04:28:15.881Z,100.00
2024-02-23T04:30:44.169Z,100.00
2024-02-23T04:33:12.534Z,100.00
2024-02-23T04:35:40.923Z,100.00
2024-02-23T04:38:09.267Z,100.00
2024-02-23T04:40:39.004Z,100.00
2024-02-23T04:43:07.644Z,100.00
2024-02-23T04:45:36.043Z,100.00
2024-02-23T04:48:05.132Z,100.00
2024-02-23T04:50:33.620Z,100.00
2024-02-23T04:53:02.004Z,100.00
2024-02-23T04:55:30.386Z,100.00
2024-02-23T04:58:00.530Z,100.00
2024-02-23T05:00:34.438Z,100.00
2024-02-23T05:03:05.052Z,100.00
2024-02-23T05:05:33.893Z,100.00
2024-02-23T05:08:02.280Z,100.00
2024-02-23T05:10:30.964Z,100.00
2024-02-23T05:13:00.730Z,100.00
2024-02-23T05:15:29.047Z,100.00
2024-02-23T05:17:57.430Z,100.00
2024-02-23T05:20:25.905Z,100.00
2024-02-23T05:22:54.301Z,100.00
2024-02-23T05:25:23.018Z,100.00
2024-02-23T05:27:51.435Z,100.00
2024-02-23T05:30:21.289Z,100.00
2024-02-23T05:32:50.167Z,100.00
2024-02-23T05:35:19.258Z,100.00
2024-02-23T05:37:47.894Z,100.00
2024-02-23T05:40:16.584Z,100.00
2024-02-23T05:42:44.942Z,100.00
2024-02-23T05:45:13.297Z,100.00
2024-02-23T05:47:46.198Z,100.00
2024-02-23T05:50:17.260Z,100.00
2024-02-23T05:52:46.015Z,100.00
2024-02-23T05:55:14.417Z,100.00
2024-02-23T05:57:42.791Z,100.00
2024-02-23T06:00:13.820Z,100.00
2024-02-23T06:02:44.724Z,100.00
2024-02-23T06:05:13.936Z,100.00
2024-02-23T06:07:43.933Z,100.00
2024-02-23T06:10:12.446Z,100.00
2024-02-23T06:12:40.829Z,100.00
2024-02-23T06:15:10.311Z,100.00
2024-02-23T06:17:38.679Z,100.00
2024-02-23T06:20:10.971Z,100.00
2024-02-23T06:22:39.363Z,100.00
2024-02-23T06:25:08.059Z,100.00
2024-02-23T06:27:36.438Z,100.00
2024-02-23T06:30:05.110Z,100.00
2024-02-23T06:32:33.452Z,100.00
2024-02-23T06:35:01.932Z,100.00
2024-02-23T06:37:31.811Z,100.00
2024-02-23T06:40:00.241Z,100.00
2024-02-23T06:42:28.585Z,100.00
2024-02-23T06:44:57.797Z,100.00
2024-02-23T06:47:26.465Z,100.00
2024-02-23T06:49:55.005Z,100.00
2024-02-23T06:52:24.593Z,100.00
2024-02-23T06:54:54.396Z,100.00
2024-02-23T06:57:23.793Z,100.00
2024-02-23T06:59:52.424Z,100.00
2024-02-23T07:02:20.819Z,100.00
2024-02-23T07:04:49.165Z,100.00
2024-02-23T07:07:17.554Z,100.00
2024-02-23T07:09:46.103Z,100.00
2024-02-23T07:12:15.964Z,100.00
2024-02-23T07:14:44.364Z,100.00
2024-02-23T07:17:12.707Z,100.00
2024-02-23T07:19:41.222Z,100.00
2024-02-23T07:22:09.573Z,100.00
2024-02-23T07:24:41.592Z,100.00
2024-02-23T07:27:09.948Z,100.00
2024-02-23T07:29:40.050Z,100.00
2024-02-23T07:32:08.957Z,100.00
2024-02-23T07:34:37.867Z,100.00
2024-02-23T07:37:06.337Z,100.00
2024-02-23T07:39:34.684Z,100.00
2024-02-23T07:42:03.913Z,100.00
2024-02-23T07:44:32.276Z,100.00
2024-02-23T07:47:02.220Z,100.00
2024-02-23T07:49:30.602Z,100.00
2024-02-23T07:51:59.079Z,100.00
2024-02-23T07:54:27.692Z,100.00
2024-02-23T07:56:56.060Z,100.00
2024-02-23T07:59:24.479Z,100.00
2024-02-23T08:01:52.829Z,100.00
2024-02-23T08:04:22.632Z,100.00
2024-02-23T08:06:52.198Z,100.00
2024-02-23T08:09:20.594Z,100.00
2024-02-23T08:11:49.041Z,100.00
2024-02-23T08:14:17.669Z,100.00
2024-02-23T08:16:46.025Z,100.00
2024-02-23T08:19:14.429Z,100.00
2024-02-23T08:21:45.318Z,100.00
2024-02-23T08:24:13.646Z,100.00
2024-02-23T08:26:43.203Z,100.00
2024-02-23T08:29:11.578Z,100.00
2024-02-23T08:31:42.479Z,100.00
2024-02-23T08:34:11.500Z,100.00
2024-02-23T08:36:39.881Z,100.00
2024-02-23T08:39:10.184Z,100.00
2024-02-23T08:41:38.571Z,100.00
2024-02-23T08:44:07.117Z,100.00
2024-02-23T08:46:35.579Z,100.00
2024-02-23T08:49:04.414Z,100.00
2024-02-23T08:51:32.725Z,100.00
2024-02-23T08:54:05.592Z,100.00
2024-02-23T08:56:39.340Z,100.00
2024-02-23T08:59:07.856Z,100.00
2024-02-23T09:01:36.266Z,100.00
2024-02-23T09:04:04.701Z,100.00
2024-02-23T09:06:37.851Z,100.00
2024-02-23T09:09:07.956Z,100.00
2024-02-23T09:11:38.286Z,100.00
2024-02-23T09:14:06.980Z,100.00
2024-02-23T09:16:35.562Z,100.00
2024-02-23T09:19:03.900Z,100.00
2024-02-23T09:21:32.271Z,100.00
2024-02-23T09:24:00.676Z,100.00
2024-02-23T09:26:29.414Z,100.00
2024-02-23T09:28:59.280Z,100.00
2024-02-23T09:31:29.406Z,100.00
2024-02-23T09:33:58.182Z,100.00
2024-02-23T09:36:26.661Z,100.00
2024-02-23T09:38:55.105Z,100.00
2024-02-23T09:41:24.764Z,100.00
2024-02-23T09:43:54.172Z,100.00
2024-02-23T09:46:24.033Z,99.90
2024-02-23T09:48:52.535Z,100.00
2024-02-23T09:51:21.727Z,98.75
2024-02-23T09:53:50.150Z,100.00
2024-02-23T09:56:21.148Z,99.60
2024-02-23T09:58:50.415Z,100.00
2024-02-23T10:01:20.116Z,100.00
2024-02-23T10:03:49.980Z,100.00
2024-02-23T10:06:18.815Z,100.00
2024-02-23T10:08:47.447Z,100.00
2024-02-23T10:11:17.136Z,99.76
2024-02-23T10:13:45.703Z,100.00
2024-02-23T10:16:15.992Z,100.00
2024-02-23T10:18:44.773Z,100.00
2024-02-23T10:21:14.508Z,100.00
2024-02-23T10:23:43.044Z,100.00
2024-02-23T10:26:11.521Z,100.00
2024-02-23T10:28:40.704Z,100.00
2024-02-23T10:31:11.633Z,100.00
2024-02-23T10:33:42.242Z,100.00
2024-02-23T10:36:10.775Z,100.00
2024-02-23T10:38:41.364Z,100.00
2024-02-23T10:41:10.262Z,100.00
2024-02-23T10:43:48.244Z,100.00
2024-02-23T10:46:17.105Z,100.00
2024-02-23T10:48:47.079Z,100.00
2024-02-23T10:51:20.241Z,100.00
2024-02-23T10:53:51.355Z,100.00
2024-02-23T10:56:19.987Z,100.00
2024-02-23T10:58:48.382Z,100.00
2024-02-23T11:01:17.007Z,100.00
2024-02-23T11:03:49.242Z,100.00
2024-02-23T11:06:22.473Z,100.00
2024-02-23T11:08:54.018Z,100.00
2024-02-23T11:11:22.534Z,100.00
2024-02-23T11:13:50.932Z,100.00
2024-02-23T11:16:24.661Z,100.00
2024-02-23T11:18:53.001Z,100.00
2024-02-23T11:21:21.392Z,100.00
2024-02-23T11:23:51.218Z,100.00
2024-02-23T11:26:20.953Z,100.00
2024-02-23T11:28:50.033Z,100.00
2024-02-23T11:31:18.777Z,100.00
2024-02-23T11:33:53.549Z,100.00
2024-02-23T11:36:25.155Z,100.00
2024-02-23T11:38:57.075Z,100.00
2024-02-23T11:41:27.064Z,100.00
2024-02-23T11:43:56.440Z,100.00
2024-02-23T11:46:25.069Z,100.00
2024-02-23T11:48:55.972Z,100.00
2024-02-23T11:51:25.525Z,100.00
2024-02-23T11:53:53.919Z,100.00
2024-02-23T11:56:22.831Z,100.00
2024-02-23T11:58:52.610Z,100.00
2024-02-23T12:01:20.992Z,100.00
2024-02-23T12:03:49.433Z,100.00
2024-02-23T12:06:17.824Z,100.00
2024-02-23T12:08:48.077Z,100.00
2024-02-23T12:11:16.662Z,100.00
2024-02-23T12:13:46.110Z,100.00
2024-02-23T12:16:16.785Z,100.00
2024-02-23T12:18:45.208Z,100.00
2024-02-23T12:21:14.575Z,100.00
2024-02-23T12:23:42.437Z,100.00
2024-02-23T12:26:10.897Z,100.00
2024-02-23T12:28:39.237Z,100.00
2024-02-23T12:31:07.951Z,100.00
2024-02-23T12:33:38.907Z,100.00
2024-02-23T12:36:07.907Z,100.00
2024-02-23T12:38:36.330Z,100.00
2024-02-23T12:41:04.952Z,100.00
2024-02-23T12:43:33.300Z,100.00
2024-02-23T12:46:02.920Z,99.43
2024-02-23T12:48:31.310Z,99.83
2024-02-23T12:51:01.178Z,98.75
2024-02-23T12:53:34.125Z,99.54
2024-02-23T12:56:03.582Z,99.22
2024-02-23T12:58:32.062Z,98.52
2024-02-23T13:01:00.504Z,99.51
2024-02-23T13:03:30.057Z,98.09
2024-02-23T13:06:00.230Z,97.38
2024-02-23T13:08:28.713Z,97.61
2024-02-23T13:10:57.200Z,98.26
2024-02-23T13:13:25.921Z,97.45
2024-02-23T13:15:54.788Z,97.95
2024-02-23T13:18:23.701Z,97.99
2024-02-23T13:20:52.671Z,97.02
2024-02-23T13:23:22.560Z,96.24
2024-02-23T13:25:50.960Z,95.94
2024-02-23T13:28:19.296Z,95.01
2024-02-23T13:30:47.629Z,96.77
2024-02-23T13:33:17.595Z,97.07
2024-02-23T13:35:46.165Z,98.63
2024-02-23T13:38:14.633Z,99.65
2024-02-23T13:40:44.491Z,96.20
2024-02-23T13:43:12.937Z,96.92
2024-02-23T13:45:51.127Z,96.14
2024-02-23T13:48:20.676Z,97.44
2024-02-23T13:50:49.338Z,97.11
2024-02-23T13:53:17.882Z,96.66
2024-02-23T13:55:47.663Z,96.92
2024-02-23T13:58:16.030Z,96.65
2024-02-23T14:00:44.682Z,96.64
2024-02-23T14:03:14.528Z,96.71
2024-02-23T14:05:45.871Z,97.91
2024-02-23T14:08:14.603Z,97.92
2024-02-23T14:10:44.546Z,99.84
2024-02-23T14:13:14.410Z,99.50
2024-02-23T14:15:43.033Z,100.00
2024-02-23T14:18:11.362Z,100.00
2024-02-23T14:20:39.849Z,99.92
2024-02-23T14:23:08.214Z,99.99
2024-02-23T14:25:36.529Z,100.00
2024-02-23T14:28:05.614Z,100.00
2024-02-23T14:30:35.372Z,100.00
2024-02-23T14:33:03.798Z,100.00
2024-02-23T14:35:32.120Z,100.00
2024-02-23T14:38:00.520Z,100.00
2024-02-23T14:40:29.081Z,100.00
2024-02-23T14:42:57.628Z,100.00
2024-02-23T14:45:25.959Z,100.00
2024-02-23T14:47:55.768Z,100.00
2024-02-23T14:50:24.245Z,100.00
2024-02-23T14:52:52.646Z,100.00
2024-02-23T14:55:21.130Z,100.00
2024-02-23T14:57:49.430Z,100.00
2024-02-23T15:00:18.647Z,100.00
2024-02-23T15:02:47.019Z,100.00
2024-02-23T15:05:19.032Z,100.00
2024-02-23T15:07:47.654Z,100.00
2024-02-23T15:10:16.589Z,100.00
2024-02-23T15:12:44.901Z,100.00
2024-02-23T15:15:13.235Z,100.00
2024-02-23T15:17:43.424Z,100.00
2024-02-23T15:20:12.918Z,100.00
2024-02-23T15:22:44.059Z,100.00
2024-02-23T15:25:13.679Z,100.00
2024-02-23T15:27:42.083Z,100.00
2024-02-23T15:30:11.716Z,100.00
2024-02-23T15:32:40.264Z,100.00
2024-02-23T15:35:09.357Z,100.00
2024-02-23T15:37:38.104Z,100.00
2024-02-23T15:40:09.130Z,100.00
2024-02-23T15:42:37.936Z,100.00
2024-02-23T15:45:07.354Z,100.00
2024-02-23T15:47:35.891Z,100.00
2024-02-23T15:50:22.707Z,100.00
2024-02-23T15:52:53.118Z,100.00
2024-02-23T15:55:22.986Z,100.00
2024-02-23T15:57:51.365Z,100.00
2024-02-23T16:00:20.488Z,100.00
2024-02-23T16:02:49.237Z,100.00
2024-02-23T16:05:17.709Z,100.00
2024-02-23T16:07:46.925Z,100.00
2024-02-23T16:10:15.890Z,100.00
2024-02-23T16:12:47.474Z,100.00
2024-02-23T16:15:15.886Z,100.00
2024-02-23T16:17:44.390Z,100.00
2024-02-23T16:20:13.463Z,100.00
2024-02-23T16:22:41.850Z,100.00
2024-02-23T16:25:11.280Z,100.00
2024-02-23T16:27:42.946Z,100.00
2024-02-23T16:30:13.793Z,100.00
2024-02-23T16:32:42.335Z,100.00
2024-02-23T16:35:16.913Z,100.00
2024-02-23T16:37:45.308Z,100.00
2024-02-23T16:40:24.038Z,100.00
2024-02-23T16:42:52.572Z,100.00
2024-02-23T16:45:24.403Z,100.00
2024-02-23T16:47:53.748Z,100.00
2024-02-23T16:50:22.233Z,100.00
2024-02-23T16:52:50.589Z,100.00
2024-02-23T16:55:19.775Z,100.00
2024-02-23T16:57:48.405Z,100.00
2024-02-23T17:00:19.918Z,100.00
2024-02-23T17:02:49.714Z,100.00
2024-02-23T17:05:18.203Z,100.00
2024-02-23T17:07:46.656Z,100.00
2024-02-23T17:10:15.513Z,100.00
2024-02-23T17:12:46.425Z,100.00
2024-02-23T17:15:14.749Z,100.00
2024-02-23T17:17:43.207Z,100.00
2024-02-23T17:20:13.505Z,100.00
2024-02-23T17:22:42.416Z,100.00
2024-02-23T17:25:11.087Z,100.00
2024-02-23T17:27:39.556Z,100.00
2024-02-23T17:30:08.862Z,100.00
2024-02-23T17:32:37.341Z,100.00
2024-02-23T17:35:06.618Z,100.00
2024-02-23T17:37:36.719Z,100.00
2024-02-23T17:40:05.494Z,100.00
2024-02-23T17:42:33.841Z,100.00
2024-02-23T17:45:02.175Z,100.00
2024-02-23T17:47:30.558Z,100.00
2024-02-23T17:49:59.009Z,100.00
2024-02-23T17:52:29.728Z,100.00
2024-02-23T17:55:00.876Z,100.00
2024-02-23T17:57:29.220Z,100.00
2024-02-23T17:59:57.643Z,100.00
2024-02-23T18:02:26.174Z,100.00
2024-02-23T18:04:54.899Z,100.00
2024-02-23T18:07:23.334Z,100.00
2024-02-23T18:09:51.794Z,100.00
2024-02-23T18:12:21.771Z,100.00
2024-02-23T18:14:50.724Z,100.00
2024-02-23T18:17:19.166Z,100.00
2024-02-23T18:19:48.602Z,100.00
2024-02-23T18:22:16.943Z,100.00
2024-02-23T18:24:45.342Z,100.00
2024-02-23T18:27:13.749Z,100.00
2024-02-23T18:29:43.638Z,100.00
2024-02-23T18:32:13.230Z,100.00
2024-02-23T18:34:41.725Z,100.00
2024-02-23T18:37:10.126Z,100.00
2024-02-23T18:39:38.478Z,100.00
2024-02-23T18:42:08.055Z,100.00
2024-02-23T18:44:37.271Z,100.00
2024-02-23T18:47:07.387Z,100.00
2024-02-23T18:49:35.874Z,100.00
2024-02-23T18:52:05.032Z,100.00
2024-02-23T18:54:33.342Z,100.00
2024-02-23T18:57:02.544Z,100.00
2024-02-23T18:59:31.102Z,100.00
2024-02-23T19:01:59.527Z,100.00
2024-02-23T19:04:30.632Z,100.00
2024-02-23T19:06:58.986Z,100.00
2024-02-23T19:09:27.308Z,100.00
2024-02-23T19:11:55.736Z,100.00
2024-02-23T19:14:24.404Z,100.00
2024-02-23T19:16:52.830Z,100.00
2024-02-23T19:19:21.246Z,100.00
2024-02-23T19:21:51.010Z,100.00
2024-02-23T19:24:19.668Z,100.00
2024-02-23T19:26:49.280Z,100.00
2024-02-23T19:29:17.636Z,100.00
2024-02-23T19:31:45.998Z,100.00
2024-02-23T19:34:14.344Z,100.00
2024-02-23T19:36:42.641Z,100.00
2024-02-23T19:39:13.379Z,100.00
2024-02-23T19:41:45.317Z,100.00
2024-02-23T19:44:13.831Z,100.00
2024-02-23T19:46:42.222Z,100.00
2024-02-23T19:49:10.753Z,100.00
2024-02-23T19:51:39.387Z,100.00
2024-02-23T19:54:08.664Z,100.00
2024-02-23T19:56:38.482Z,100.00
2024-02-23T19:59:06.901Z,100.00
2024-02-23T20:01:35.216Z,100.00
2024-02-23T20:04:04.421Z,100.00
2024-02-23T20:06:33.030Z,100.00
2024-02-23T20:09:01.988Z,100.00
2024-02-23T20:11:30.492Z,100.00
2024-02-23T20:14:00.404Z,100.00
2024-02-23T20:16:28.777Z,100.00
2024-02-23T20:18:57.147Z,100.00
2024-02-23T20:21:27.078Z,100.00
2024-02-23T20:23:55.377Z,100.00
2024-02-23T20:26:23.708Z,100.00
2024-02-23T20:28:52.040Z,100.00
2024-02-23T20:31:22.935Z,100.00
2024-02-23T20:33:51.643Z,100.00
2024-02-23T20:36:20.058Z,100.00
2024-02-23T20:38:48.493Z,100.00
2024-02-23T20:41:16.828Z,100.00
2024-02-23T20:43:45.469Z,100.00
2024-02-23T20:46:13.780Z,100.00
2024-02-23T20:48:43.882Z,100.00
2024-02-23T20:51:12.274Z,100.00
2024-02-23T20:53:40.672Z,100.00
2024-02-23T20:56:10.903Z,100.00
2024-02-23T20:58:39.445Z,100.00
2024-02-23T21:01:08.610Z,100.00
2024-02-23T21:03:37.826Z,100.00
2024-02-23T21:06:10.756Z,100.00
2024-02-23T21:08:40.693Z,100.00
2024-02-23T21:11:09.460Z,100.00
2024-02-23T21:13:37.878Z,100.00
2024-02-23T21:16:06.942Z,100.00
2024-02-23T21:18:35.325Z,100.00
2024-02-23T21:21:03.839Z,100.00
2024-02-23T21:23:33.951Z,100.00
2024-02-23T21:26:02.394Z,100.00
2024-02-23T21:28:30.748Z,100.00
2024-02-23T21:31:04.993Z,100.00
2024-02-23T21:33:33.733Z,100.00
2024-02-23T21:36:02.548Z,100.00
2024-02-23T21:38:30.935Z,100.00
2024-02-23T21:41:00.844Z,100.00
2024-02-23T21:43:29.476Z,100.00
2024-02-23T21:45:57.835Z,100.00
2024-02-23T21:48:26.258Z,100.00
2024-02-23T21:50:54.603Z,100.00
2024-02-23T21:53:23.009Z,100.00
2024-02-23T21:55:51.330Z,100.00
2024-02-23T21:58:21.400Z,100.00
2024-02-23T22:00:49.883Z,100.00
2024-02-23T22:03:19.750Z,100.00
2024-02-23T22:05:48.346Z,100.00
2024-02-23T22:08:16.762Z,100.00
2024-02-23T22:10:45.287Z,100.00
2024-02-23T22:13:13.890Z,100.00
2024-02-23T22:15:43.752Z,100.00
2024-02-23T22:18:12.198Z,100.00
2024-02-23T22:20:40.718Z,100.00
2024-02-23T22:23:10.707Z,100.00
2024-02-23T22:25:39.440Z,100.00
2024-02-23T22:28:08.077Z,100.00
2024-02-23T22:30:36.515Z,100.00
2024-02-23T22:33:08.142Z,100.00
2024-02-23T22:35:36.624Z,100.00
2024-02-23T22:38:05.605Z,100.00
2024-02-23T22:40:34.386Z,100.00
2024-02-23T22:43:02.716Z,100.00
2024-02-23T22:45:31.028Z,100.00
2024-02-23T22:47:59.626Z,100.00
2024-02-23T22:50:29.536Z,100.00
2024-02-23T22:52:58.235Z,100.00
2024-02-23T22:55:26.680Z,100.00
2024-02-23T22:57:55.071Z,100.00
2024-02-23T23:00:23.509Z,100.00
2024-02-23T23:02:51.939Z,100.00
2024-02-23T23:05:22.161Z,100.00
2024-02-23T23:07:51.957Z,100.00
2024-02-23T23:10:20.415Z,100.00
2024-02-23T23:12:48.760Z,100.00
2024-02-23T23:15:17.348Z,100.00
2024-02-23T23:17:45.792Z,100.00
2024-02-23T23:20:14.563Z,100.00
2024-02-23T23:22:42.947Z,100.00
2024-02-23T23:25:13.120Z,100.00
2024-02-23T23:27:41.390Z,100.00
2024-02-23T23:30:10.328Z,100.00
2024-02-23T23:32:40.847Z,100.00
2024-02-23T23:35:09.928Z,100.00
2024-02-23T23:37:38.314Z,100.00
2024-02-23T23:40:07.788Z,100.00
2024-02-23T23:42:37.482Z,100.00
2024-02-23T23:45:06.558Z,100.00
2024-02-23T23:47:34.975Z,100.00
2024-02-23T23:50:03.461Z,100.00
2024-02-23T23:52:32.158Z,100.00
2024-02-23T23:55:00.634Z,100.00
2024-02-23T23:57:29.944Z,100.00
2024-02-23T23:59:59.951Z,100.00
